Time;durP1;ratioP1;P1;durP2;ratioP2;P2;SDS_P1;SDS_P2;PMS_P1;PMS_P2;Temp;Humidity;BMP_temperature;BMP_pressure;BME280_temperature;BME280_humidity;BME280_pressure;Samples;Min_cycle;Max_cycle;Signal;HPM_P1;HPM_P2
2021/10/13 00:00:33;;;;;;;3.90;1.00;;;;;;;8.69;92.88;102523.38;4923984;29;20253;-87
2021/10/13 00:02:59;;;;;;;8.93;1.20;;;;;;;8.69;92.55;102518.16;4935370;29;20043;-88
2021/10/13 00:05:24;;;;;;;4.35;1.00;;;;;;;8.65;92.72;102522.50;4940091;29;20048;-87
2021/10/13 00:07:50;;;;;;;3.55;1.10;;;;;;;8.57;92.24;102518.25;4917191;29;20035;-87
2021/10/13 00:10:15;;;;;;;2.50;0.85;;;;;;;8.54;92.15;102508.66;4922574;29;20047;-87
2021/10/13 00:12:41;;;;;;;3.65;1.05;;;;;;;8.53;92.07;102511.28;4931667;29;20036;-87
2021/10/13 00:15:09;;;;;;;5.70;1.27;;;;;;;8.48;92.11;102505.19;4907326;29;20040;-87
2021/10/13 00:17:35;;;;;;;1.85;0.70;;;;;;;8.45;92.19;102508.72;4908577;29;20031;-87
2021/10/13 00:20:02;;;;;;;2.83;0.90;;;;;;;8.42;91.84;102498.28;4934690;29;20349;-88
2021/10/13 00:22:28;;;;;;;5.38;0.88;;;;;;;8.39;91.82;102499.13;4908320;29;20028;-87
2021/10/13 00:24:53;;;;;;;7.70;1.27;;;;;;;8.34;91.71;102500.91;4902191;29;20034;-87
2021/10/13 00:27:19;;;;;;;2.47;1.33;;;;;;;8.31;91.24;102500.03;4923599;29;20063;-88
2021/10/13 00:29:44;;;;;;;3.17;1.30;;;;;;;8.27;91.19;102501.78;4932830;29;20047;-87
2021/10/13 00:32:10;;;;;;;5.28;1.23;;;;;;;8.19;91.16;102507.06;4908242;29;20035;-87
2021/10/13 00:34:35;;;;;;;4.88;1.50;;;;;;;8.14;91.43;102503.59;4939969;29;20046;-87
2021/10/13 00:37:02;;;;;;;3.70;1.10;;;;;;;8.13;91.38;102506.19;4934751;29;20034;-87
2021/10/13 00:39:28;;;;;;;2.10;1.30;;;;;;;8.13;91.79;102501.88;4923141;29;20051;-88
2021/10/13 00:41:53;;;;;;;2.17;1.30;;;;;;;8.13;91.84;102503.59;4907664;29;20043;-87
2021/10/13 00:44:18;;;;;;;7.30;1.65;;;;;;;8.10;91.75;102512.31;4907555;29;20031;-88
2021/10/13 00:46:44;;;;;;;6.63;1.58;;;;;;;8.10;91.65;102522.75;4916873;29;20054;-87
2021/10/13 00:49:09;;;;;;;4.38;1.45;;;;;;;8.10;91.80;102520.13;4923747;29;20035;-87
2021/10/13 00:51:35;;;;;;;3.40;1.02;;;;;;;8.11;91.80;102536.66;4907518;29;20036;-87
2021/10/13 00:54:00;;;;;;;3.83;1.30;;;;;;;8.14;92.44;102539.28;4902569;29;20024;-87
2021/10/13 00:56:26;;;;;;;3.60;1.30;;;;;;;8.21;92.47;102535.75;4923595;29;20331;-87
2021/10/13 00:58:52;;;;;;;2.95;1.23;;;;;;;8.27;92.77;102533.97;4901829;29;20450;-87
2021/10/13 01:01:29;;;;;;;11.95;2.00;;;;;;;8.33;92.86;102530.50;4923598;29;20078;-88
2021/10/13 01:04:04;;;;;;;8.57;1.42;;;;;;;8.36;92.92;102538.31;4917992;29;20048;-87
2021/10/13 01:06:58;;;;;;;6.70;1.77;;;;;;;8.36;93.21;102534.81;4923356;29;20356;-87
2021/10/13 01:09:40;;;;;;;2.30;1.20;;;;;;;8.40;93.11;102534.81;4936149;29;20040;-87
2021/10/13 01:12:26;;;;;;;6.97;1.45;;;;;;;8.40;93.11;102531.31;4936614;29;20036;-87
2021/10/13 01:15:15;;;;;;;5.97;1.83;;;;;;;8.45;93.09;102527.00;4920186;29;20098;-87
2021/10/13 01:17:48;;;;;;;6.03;1.48;;;;;;;8.49;93.22;102536.53;4909240;29;20035;-87
2021/10/13 01:20:19;;;;;;;4.47;1.48;;;;;;;8.55;93.30;102530.41;4908145;29;20430;-87
2021/10/13 01:23:05;;;;;;;3.03;1.75;;;;;;;8.58;93.18;102527.78;4939384;29;20110;-87
2021/10/13 01:25:39;;;;;;;4.07;1.38;;;;;;;8.61;93.44;102509.50;4935278;29;20024;-87
2021/10/13 01:28:35;;;;;;;4.00;1.15;;;;;;;8.65;93.31;102508.59;4915628;29;20032;-87
2021/10/13 01:31:04;;;;;;;9.27;2.00;;;;;;;8.67;93.38;102511.22;4908219;29;20281;-87
2021/10/13 01:33:42;;;;;;;10.00;1.42;;;;;;;8.62;93.22;102506.88;4919921;29;20036;-87
2021/10/13 01:36:11;;;;;;;2.75;1.20;;;;;;;8.63;93.29;102523.41;4900850;29;20093;-88
2021/10/13 01:38:39;;;;;;;5.13;1.25;;;;;;;8.61;93.05;102526.03;4907011;29;20059;-87
2021/10/13 01:41:05;;;;;;;5.28;1.45;;;;;;;8.59;92.99;102511.25;4901030;29;20027;-88
2021/10/13 01:43:33;;;;;;;7.07;1.42;;;;;;;8.57;92.88;102521.72;4903943;29;20047;-87
2021/10/13 01:45:58;;;;;;;7.22;1.60;;;;;;;8.57;92.74;102519.09;4883749;29;20024;-87
2021/10/13 01:48:24;;;;;;;12.15;1.40;;;;;;;8.58;92.79;102528.66;4903716;29;20038;-87
2021/10/13 01:50:50;;;;;;;6.10;1.23;;;;;;;8.57;92.96;102534.75;4898458;29;20048;-87
2021/10/13 01:53:16;;;;;;;5.70;1.67;;;;;;;8.59;93.00;102547.81;4904166;29;20039;-87
2021/10/13 01:55:41;;;;;;;5.07;1.30;;;;;;;8.57;92.95;102550.44;4914874;29;20035;-87
2021/10/13 01:58:07;;;;;;;5.57;1.08;;;;;;;8.60;93.13;102542.59;4923749;29;20040;-87
2021/10/13 02:00:32;;;;;;;6.68;1.65;;;;;;;8.66;93.14;102541.69;4922583;29;20016;-88
2021/10/13 02:02:58;;;;;;;10.05;1.85;;;;;;;8.68;93.13;102541.66;4905664;29;20060;-87
2021/10/13 02:05:23;;;;;;;6.20;1.13;;;;;;;8.71;93.31;102533.81;4892996;29;20199;-87
2021/10/13 02:07:49;;;;;;;9.23;1.40;;;;;;;8.71;93.35;102525.97;4958891;29;20036;-87
2021/10/13 02:10:14;;;;;;;5.57;1.30;;;;;;;8.76;93.50;102532.91;4925961;29;20301;-87
2021/10/13 02:12:42;;;;;;;4.38;1.02;;;;;;;8.79;93.54;102524.19;4910452;29;20027;-87
2021/10/13 02:15:08;;;;;;;4.20;1.02;;;;;;;8.80;93.36;102526.81;4926921;29;20302;-87
2021/10/13 02:17:38;;;;;;;7.03;0.93;;;;;;;8.84;93.29;102538.06;4908539;29;20024;-88
2021/10/13 02:20:04;;;;;;;3.55;1.00;;;;;;;8.85;93.65;102537.22;4926513;29;20016;-88
2021/10/13 02:22:30;;;;;;;2.55;0.68;;;;;;;8.83;93.40;102536.34;4926229;29;20114;-87
2021/10/13 02:24:55;;;;;;;4.25;1.08;;;;;;;8.83;93.41;102538.97;4957771;29;20046;-87
2021/10/13 02:27:33;;;;;;;6.72;1.60;;;;;;;8.82;93.43;102543.34;4942207;29;20103;-87
2021/10/13 02:29:58;;;;;;;4.55;1.00;;;;;;;8.84;93.32;102556.34;4943459;29;20090;-87
2021/10/13 02:32:24;;;;;;;3.67;1.20;;;;;;;8.83;93.38;102544.19;4925662;29;20231;-87
2021/10/13 02:34:49;;;;;;;2.60;0.93;;;;;;;8.81;93.47;102549.41;4958116;29;20283;-88
2021/10/13 02:37:15;;;;;;;6.53;1.23;;;;;;;8.80;93.30;102544.19;4957609;29;20115;-87
2021/10/13 02:39:40;;;;;;;5.90;1.05;;;;;;;8.76;93.12;102550.34;4941257;29;20020;-87
2021/10/13 02:42:06;;;;;;;4.95;1.15;;;;;;;8.73;92.92;102556.44;4917657;29;20519;-87
2021/10/13 02:44:31;;;;;;;4.60;1.08;;;;;;;8.70;92.85;102560.81;4925669;29;20019;-87
2021/10/13 02:47:24;;;;;;;6.63;1.15;;;;;;;8.67;92.60;102566.06;4926195;29;20063;-88
2021/10/13 02:50:19;;;;;;;2.60;0.98;;;;;;;8.67;92.51;102569.53;4941792;29;20051;-88
2021/10/13 02:53:04;;;;;;;7.07;1.33;;;;;;;8.68;92.54;102566.06;4933649;29;20319;-88
2021/10/13 02:55:32;;;;;;;6.38;1.20;;;;;;;8.69;92.51;102559.06;4941092;29;20351;-87
2021/10/13 02:58:17;;;;;;;4.75;1.25;;;;;;;8.69;92.54;102556.47;4910397;29;20024;-88
2021/10/13 03:00:43;;;;;;;6.10;1.50;;;;;;;8.69;92.74;102559.06;4911778;29;20055;-89
2021/10/13 03:03:10;;;;;;;2.45;1.10;;;;;;;8.65;92.54;102558.22;4913410;29;20085;-88
2021/10/13 03:05:38;;;;;;;8.45;2.35;;;;;;;8.63;92.50;102555.63;4913443;29;20334;-88
2021/10/13 03:08:07;;;;;;;4.97;1.20;;;;;;;8.62;92.68;102555.63;4929721;29;20129;-88
2021/10/13 03:10:33;;;;;;;4.53;1.10;;;;;;;8.56;92.50;102555.66;4928108;29;20098;-88
2021/10/13 03:12:59;;;;;;;4.03;1.25;;;;;;;8.53;92.17;102567.00;4929276;29;20290;-88
2021/10/13 03:15:25;;;;;;;5.80;1.05;;;;;;;8.49;92.33;102573.09;4928060;29;20235;-89
2021/10/13 03:17:55;;;;;;;2.47;0.77;;;;;;;8.43;92.00;102562.69;4912032;29;20038;-88
2021/10/13 03:20:21;;;;;;;2.25;0.70;;;;;;;8.40;91.95;102563.53;4920126;29;20043;-89
2021/10/13 03:22:47;;;;;;;3.28;0.82;;;;;;;8.38;91.92;102567.88;4909969;29;20251;-89
2021/10/13 03:25:12;;;;;;;3.00;1.13;;;;;;;8.33;91.81;102580.09;4924305;29;20034;-89
2021/10/13 03:27:37;;;;;;;4.20;1.20;;;;;;;8.30;91.38;102580.09;4928622;29;20043;-89
2021/10/13 03:30:05;;;;;;;2.75;0.90;;;;;;;8.27;91.47;102575.75;4944715;29;20043;-88
2021/10/13 03:32:30;;;;;;;7.72;0.82;;;;;;;8.25;91.11;102582.72;4928624;29;20102;-88
2021/10/13 03:34:56;;;;;;;2.10;1.02;;;;;;;8.23;91.35;102587.06;4928708;29;20035;-88
2021/10/13 03:37:21;;;;;;;3.67;1.27;;;;;;;8.21;91.37;102583.59;4927708;29;20034;-89
2021/10/13 03:39:47;;;;;;;4.15;1.23;;;;;;;8.19;91.36;102580.13;4940534;29;20032;-88
2021/10/13 03:42:13;;;;;;;5.72;1.40;;;;;;;8.18;91.60;102588.81;4901291;29;20075;-88
2021/10/13 03:44:39;;;;;;;2.70;0.90;;;;;;;8.16;91.77;102589.72;4909421;29;20138;-88
2021/10/13 03:47:05;;;;;;;4.18;1.30;;;;;;;8.14;92.06;102602.75;4909367;29;20039;-89
2021/10/13 03:49:31;;;;;;;6.43;1.10;;;;;;;8.17;92.09;102591.47;4909284;29;20366;-89
2021/10/13 03:51:56;;;;;;;3.55;1.38;;;;;;;8.20;92.36;102597.50;4924988;29;20035;-88
2021/10/13 03:54:22;;;;;;;5.85;1.30;;;;;;;8.23;92.72;102594.91;4916999;29;20302;-89
2021/10/13 03:56:47;;;;;;;3.72;1.25;;;;;;;8.24;92.93;102596.66;4912443;29;20035;-88
2021/10/13 03:59:12;;;;;;;7.20;1.20;;;;;;;8.24;93.16;102595.75;4928017;29;20039;-89
2021/10/13 04:01:38;;;;;;;4.75;1.10;;;;;;;8.23;93.25;102592.28;4924408;29;20054;-89
2021/10/13 04:04:03;;;;;;;8.40;2.50;;;;;;;8.24;93.29;102585.31;4913800;29;20031;-88
2021/10/13 04:06:29;;;;;;;2.22;1.20;;;;;;;8.26;93.43;102584.47;4925771;29;20066;-89
2021/10/13 04:08:54;;;;;;;6.22;1.95;;;;;;;8.26;93.31;102581.84;4919361;29;20362;-88
2021/10/13 04:11:20;;;;;;;6.25;1.20;;;;;;;8.26;93.31;102571.41;4918288;29;20228;-89
2021/10/13 04:13:46;;;;;;;3.75;1.58;;;;;;;8.25;93.47;102579.25;4916282;29;20078;-88
2021/10/13 04:16:12;;;;;;;2.88;1.15;;;;;;;8.24;93.38;102575.78;4940140;29;20047;-88
2021/10/13 04:18:37;;;;;;;5.43;1.63;;;;;;;8.27;93.46;102583.56;4908529;29;20169;-88
2021/10/13 04:21:02;;;;;;;7.03;2.78;;;;;;;8.27;93.54;102578.34;4917663;29;20090;-88
2021/10/13 04:23:28;;;;;;;6.18;1.80;;;;;;;8.26;93.70;102581.84;4920848;29;20040;-89
2021/10/13 04:25:53;;;;;;;5.05;2.03;;;;;;;8.26;93.78;102576.63;4902553;29;20443;-88
2021/10/13 04:28:19;;;;;;;11.10;1.45;;;;;;;8.26;93.78;102581.84;4907842;29;20040;-89
2021/10/13 04:30:44;;;;;;;4.20;1.55;;;;;;;8.27;93.37;102590.53;4917115;29;20028;-88
2021/10/13 04:33:10;;;;;;;6.25;1.73;;;;;;;8.24;93.53;102585.31;4941046;29;20144;-89
2021/10/13 04:35:35;;;;;;;4.15;1.33;;;;;;;8.23;93.29;102588.81;4923569;29;20054;-88
2021/10/13 04:38:05;;;;;;;6.55;1.38;;;;;;;8.20;92.92;102581.84;4935026;29;20078;-88
2021/10/13 04:40:30;;;;;;;2.85;1.48;;;;;;;8.19;92.92;102587.97;4922423;29;20039;-88
2021/10/13 04:42:56;;;;;;;4.90;1.45;;;;;;;8.18;92.79;102583.59;4905287;29;20035;-88
2021/10/13 04:45:21;;;;;;;7.10;1.65;;;;;;;8.15;92.63;102583.63;4886937;29;20043;-88
2021/10/13 04:47:47;;;;;;;7.05;1.30;;;;;;;8.06;92.39;102579.31;4898667;29;20036;-88
2021/10/13 04:50:12;;;;;;;8.00;2.05;;;;;;;8.00;92.05;102583.66;4905111;29;20032;-88
2021/10/13 04:52:38;;;;;;;5.03;1.40;;;;;;;7.96;92.16;102590.63;4905194;29;20378;-88
2021/10/13 04:55:04;;;;;;;8.07;1.55;;;;;;;7.95;92.10;102601.06;4914055;29;20041;-88
2021/10/13 04:57:29;;;;;;;4.47;1.42;;;;;;;7.93;92.14;102582.81;4923582;29;20039;-88
2021/10/13 04:59:55;;;;;;;2.35;1.45;;;;;;;7.93;92.41;102585.44;4934390;29;20295;-89
2021/10/13 05:02:21;;;;;;;5.75;1.75;;;;;;;7.92;92.56;102585.44;4907503;29;20085;-88
2021/10/13 05:04:46;;;;;;;2.67;1.77;;;;;;;7.90;92.68;102592.38;4916958;29;20072;-88
2021/10/13 05:07:11;;;;;;;5.88;1.60;;;;;;;7.87;92.64;102588.03;4907955;29;20091;-89
2021/10/13 05:09:37;;;;;;;1.48;1.23;;;;;;;7.87;92.67;102588.03;4922909;29;20040;-88
2021/10/13 05:12:03;;;;;;;5.55;1.67;;;;;;;7.84;92.65;102591.53;4903442;29;20334;-88
2021/10/13 05:14:28;;;;;;;3.03;1.35;;;;;;;7.81;92.13;102599.34;4923287;29;20036;-88
2021/10/13 05:16:53;;;;;;;3.28;1.30;;;;;;;7.79;91.76;102597.63;4917884;29;20098;-88
2021/10/13 05:19:19;;;;;;;2.03;1.38;;;;;;;7.79;91.76;102598.47;4923414;29;20035;-89
2021/10/13 05:21:44;;;;;;;2.10;1.33;;;;;;;7.79;91.87;102598.47;4931594;29;20031;-88
2021/10/13 05:24:11;;;;;;;3.50;1.70;;;;;;;7.80;91.79;102597.59;4913431;29;20090;-88
2021/10/13 05:26:37;;;;;;;3.80;2.30;;;;;;;7.81;92.15;102601.09;4938289;29;20264;-88
2021/10/13 05:29:02;;;;;;;4.50;2.45;;;;;;;7.82;92.60;102603.69;4919130;29;20051;-88
2021/10/13 05:31:28;;;;;;;3.33;1.45;;;;;;;7.83;92.69;102599.34;4907626;29;20345;-88
2021/10/13 05:33:53;;;;;;;4.30;1.00;;;;;;;7.80;92.91;102607.16;4902061;29;20039;-89
2021/10/13 05:36:19;;;;;;;1.50;1.25;;;;;;;7.80;92.87;102612.38;4923177;29;20042;-89
2021/10/13 05:38:44;;;;;;;1.90;1.70;;;;;;;7.81;92.88;102615.00;4918302;29;20055;-88
2021/10/13 05:41:10;;;;;;;4.45;2.00;;;;;;;7.84;92.91;102616.72;4924345;29;20032;-89
2021/10/13 05:43:35;;;;;;;5.68;1.83;;;;;;;7.87;93.15;102619.31;4923976;29;20032;-88
2021/10/13 05:46:00;;;;;;;8.45;2.00;;;;;;;7.91;93.37;102615.84;4918660;29;20041;-88
2021/10/13 05:48:26;;;;;;;3.50;1.95;;;;;;;7.95;93.34;102617.59;4927357;29;20357;-88
2021/10/13 05:50:52;;;;;;;5.25;2.13;;;;;;;7.99;93.71;102611.50;4946159;29;20041;-88
2021/10/13 05:53:18;;;;;;;9.25;2.50;;;;;;;8.04;93.64;102612.38;4929462;29;20097;-88
2021/10/13 05:55:43;;;;;;;5.13;2.60;;;;;;;8.06;93.86;102621.06;4900768;29;20107;-88
2021/10/13 05:58:09;;;;;;;16.95;3.42;;;;;;;8.08;93.90;102618.44;4923733;29;20091;-88
2021/10/13 06:00:34;;;;;;;11.65;2.80;;;;;;;8.12;94.21;102629.75;4928859;29;20250;-89
2021/10/13 06:02:59;;;;;;;10.68;3.03;;;;;;;8.15;94.30;102627.09;4945938;29;20162;-89
2021/10/13 06:05:26;;;;;;;9.65;3.20;;;;;;;8.19;94.18;102624.50;4924287;29;20035;-89
2021/10/13 06:07:51;;;;;;;9.05;3.03;;;;;;;8.26;94.16;102627.97;4937774;29;20035;-88
2021/10/13 06:10:17;;;;;;;5.53;2.70;;;;;;;8.30;94.24;102632.31;4949688;28;20023;-89
2021/10/13 06:12:42;;;;;;;16.52;3.22;;;;;;;8.33;94.26;102636.66;4937265;29;20373;-89
2021/10/13 06:15:08;;;;;;;9.50;3.17;;;;;;;8.34;94.32;102641.00;4935758;29;20035;-88
2021/10/13 06:17:33;;;;;;;9.77;3.08;;;;;;;8.37;94.29;102643.63;4912567;29;20079;-89
2021/10/13 06:19:59;;;;;;;8.13;3.90;;;;;;;8.42;94.22;102650.59;4910743;29;20291;-88
2021/10/13 06:22:24;;;;;;;8.90;4.40;;;;;;;8.42;94.27;102647.09;4910170;29;20035;-89
2021/10/13 06:24:50;;;;;;;10.70;4.32;;;;;;;8.41;94.12;102643.59;4920304;28;20376;-88
2021/10/13 06:27:15;;;;;;;8.95;4.45;;;;;;;8.42;94.18;102652.31;4926417;29;20250;-88
2021/10/13 06:29:40;;;;;;;12.32;4.43;;;;;;;8.43;94.30;102648.84;4910168;29;20039;-88
2021/10/13 06:32:06;;;;;;;12.32;5.32;;;;;;;8.45;94.02;102650.56;4926315;28;20042;-88
2021/10/13 06:34:31;;;;;;;25.75;5.88;;;;;;;8.48;94.28;102649.72;4917036;29;20572;-88
2021/10/13 06:36:57;;;;;;;17.05;6.40;;;;;;;8.49;94.18;102653.19;4941963;29;20042;-89
2021/10/13 06:39:22;;;;;;;11.80;5.13;;;;;;;8.52;94.06;102651.44;4925437;29;20366;-89
2021/10/13 06:41:48;;;;;;;10.80;4.95;;;;;;;8.55;94.36;102651.44;4930789;29;20330;-89
2021/10/13 06:44:14;;;;;;;10.90;5.20;;;;;;;8.55;94.36;102669.72;4928240;29;20330;-89
2021/10/13 06:46:40;;;;;;;15.88;5.53;;;;;;;8.54;94.08;102662.72;4914476;29;20039;-88
2021/10/13 06:49:05;;;;;;;9.75;4.97;;;;;;;8.53;94.08;102665.34;4908389;29;20031;-89
2021/10/13 06:51:30;;;;;;;14.18;5.53;;;;;;;8.54;93.99;102667.09;4936041;29;20043;-89
2021/10/13 06:53:56;;;;;;;10.77;4.90;;;;;;;8.55;93.88;102666.19;4935211;29;20230;-89
2021/10/13 06:56:21;;;;;;;14.50;6.15;;;;;;;8.57;93.97;102667.09;4921021;29;20334;-89
2021/10/13 06:58:47;;;;;;;15.30;5.78;;;;;;;8.58;93.77;102666.19;4921303;29;20040;-89
2021/10/13 07:01:12;;;;;;;18.35;5.40;;;;;;;8.59;94.00;102671.44;4944456;29;20064;-89
2021/10/13 07:03:37;;;;;;;21.85;6.63;;;;;;;8.63;94.05;102674.91;4924963;29;20085;-88
2021/10/13 07:06:03;;;;;;;22.35;7.00;;;;;;;8.67;93.97;102680.97;4925189;29;20275;-89
2021/10/13 07:08:28;;;;;;;26.67;7.15;;;;;;;8.68;94.20;102678.38;4940691;29;20395;-89
2021/10/13 07:10:54;;;;;;;18.02;7.57;;;;;;;8.73;94.27;102683.56;4934165;29;20043;-88
2021/10/13 07:13:19;;;;;;;16.02;6.50;;;;;;;8.77;94.23;102678.34;4928246;29;20035;-89
2021/10/13 07:15:44;;;;;;;15.15;6.22;;;;;;;8.82;94.34;102673.06;4959689;29;20154;-88
2021/10/13 07:18:10;;;;;;;10.18;5.53;;;;;;;8.89;94.17;102679.16;4918219;29;20031;-88
2021/10/13 07:20:36;;;;;;;13.82;6.63;;;;;;;8.97;94.41;102680.00;4929185;29;20023;-89
2021/10/13 07:23:01;;;;;;;14.93;6.55;;;;;;;9.02;94.35;102683.44;4938515;29;20242;-89
2021/10/13 07:25:28;;;;;;;9.50;5.50;;;;;;;9.08;94.51;102678.19;4934931;28;20032;-88
2021/10/13 07:27:53;;;;;;;8.40;4.82;;;;;;;9.13;94.50;102679.06;4938600;29;20049;-89
2021/10/13 07:30:23;;;;;;;10.68;5.13;;;;;;;9.16;94.45;102681.63;4913877;29;20118;-89
2021/10/13 07:32:49;;;;;;;7.95;4.25;;;;;;;9.20;94.52;102691.22;4929186;29;20023;-89
2021/10/13 07:35:14;;;;;;;14.13;4.35;;;;;;;9.23;94.61;102685.94;4929045;29;20071;-89
2021/10/13 07:37:39;;;;;;;8.32;4.40;;;;;;;9.26;94.17;102684.19;4941745;29;20122;-89
2021/10/13 07:40:05;;;;;;;8.57;3.70;;;;;;;9.28;94.29;102685.94;4929851;29;20042;-89
2021/10/13 07:42:31;;;;;;;8.50;3.67;;;;;;;9.30;94.27;102685.94;4936835;29;20039;-89
2021/10/13 07:44:56;;;;;;;10.18;3.78;;;;;;;9.33;94.34;102680.66;4907420;29;20452;-88
2021/10/13 07:47:23;;;;;;;7.53;3.75;;;;;;;9.35;94.16;102681.53;4938431;29;20046;-88
2021/10/13 07:49:48;;;;;;;8.43;3.40;;;;;;;9.38;94.14;102676.28;4916501;29;20119;-89
2021/10/13 07:52:14;;;;;;;8.30;3.17;;;;;;;9.41;94.16;102684.13;4936236;29;20085;-89
2021/10/13 07:54:39;;;;;;;6.63;3.83;;;;;;;9.47;94.16;102685.81;4942085;29;20051;-89
2021/10/13 07:57:04;;;;;;;5.28;3.22;;;;;;;9.51;94.29;102685.78;4930211;29;20042;-89
2021/10/13 07:59:30;;;;;;;11.25;3.65;;;;;;;9.55;94.30;102684.91;4933512;29;20226;-88
2021/10/13 08:01:55;;;;;;;5.28;3.15;;;;;;;9.61;94.34;102686.59;4926151;29;20358;-89
2021/10/13 08:04:21;;;;;;;7.38;2.97;;;;;;;9.64;94.52;102680.47;4922445;29;20036;-89
2021/10/13 08:06:47;;;;;;;7.38;2.80;;;;;;;9.70;94.38;102680.44;4948150;28;20039;-88
2021/10/13 08:09:12;;;;;;;8.60;2.85;;;;;;;9.74;94.56;102690.00;4946116;29;20061;-89
2021/10/13 08:11:38;;;;;;;7.65;3.03;;;;;;;9.79;94.63;102696.06;4923768;29;20066;-89
2021/10/13 08:14:04;;;;;;;5.85;3.00;;;;;;;9.84;94.76;102685.53;4939014;29;20036;-88
2021/10/13 08:16:29;;;;;;;6.95;2.90;;;;;;;9.89;95.02;102696.84;4925318;29;20051;-88
2021/10/13 08:18:54;;;;;;;5.18;2.60;;;;;;;9.92;94.89;102694.22;4937913;29;20047;-89
2021/10/13 08:21:20;;;;;;;9.52;2.45;;;;;;;9.94;94.81;102695.91;4925026;29;20038;-88
2021/10/13 08:23:45;;;;;;;5.10;2.50;;;;;;;9.98;94.69;102697.63;4916292;29;20048;-89
2021/10/13 08:26:11;;;;;;;4.95;2.47;;;;;;;10.02;94.65;102703.69;4906522;29;20117;-89
2021/10/13 08:28:36;;;;;;;9.23;2.60;;;;;;;10.07;94.70;102698.44;4930039;29;20038;-88
2021/10/13 08:31:02;;;;;;;12.27;2.22;;;;;;;10.08;94.57;102711.53;4942589;29;20038;-88
2021/10/13 08:33:27;;;;;;;8.18;2.60;;;;;;;10.11;94.09;102711.47;4924509;29;20049;-88
2021/10/13 08:35:52;;;;;;;4.53;2.10;;;;;;;10.13;93.83;102714.09;4923993;29;20229;-89
2021/10/13 08:38:18;;;;;;;6.70;2.22;;;;;;;10.15;93.32;102714.94;4929649;29;20054;-88
2021/10/13 08:40:44;;;;;;;8.57;2.20;;;;;;;10.17;92.22;102713.19;4946585;29;20254;-88
2021/10/13 08:43:09;;;;;;;4.88;1.35;;;;;;;10.19;90.87;102719.28;4929586;29;20045;-88
2021/10/13 08:45:36;;;;;;;4.97;1.33;;;;;;;10.21;89.39;102722.75;4919498;29;20027;-89
2021/10/13 08:48:02;;;;;;;3.97;1.40;;;;;;;10.26;88.71;102718.34;4935202;29;20129;-89
2021/10/13 08:50:28;;;;;;;3.00;1.48;;;;;;;10.28;86.82;102713.97;4905479;29;20035;-89
2021/10/13 08:53:09;;;;;;;5.32;1.38;;;;;;;10.34;85.85;102723.53;4924832;29;20102;-89
2021/10/13 08:55:35;;;;;;;2.45;1.40;;;;;;;10.40;86.02;102725.22;4906643;29;20051;-88
2021/10/13 08:58:27;;;;;;;6.25;1.50;;;;;;;10.43;86.74;102726.06;4908707;29;20053;-88
2021/10/13 09:01:02;;;;;;;3.15;1.30;;;;;;;10.45;87.37;102732.16;4918222;29;20062;-89
2021/10/13 09:03:29;;;;;;;6.50;1.48;;;;;;;10.47;87.06;102733.00;4955478;29;20031;-89
2021/10/13 09:05:55;;;;;;;10.07;1.73;;;;;;;10.50;86.45;102732.97;4923149;29;20098;-89
2021/10/13 09:08:21;;;;;;;5.55;1.45;;;;;;;10.55;86.78;102736.44;4922374;29;20039;-88
2021/10/13 09:10:46;;;;;;;8.70;1.55;;;;;;;10.59;86.18;102731.13;4940435;29;20094;-88
2021/10/13 09:13:16;;;;;;;17.63;3.05;;;;;;;10.65;86.12;102734.56;4943803;29;20043;-89
2021/10/13 09:15:54;;;;;;;3.95;0.70;;;;;;;10.68;85.36;102734.53;4925844;28;20039;-89
2021/10/13 09:18:23;;;;;;;2.57;0.80;;;;;;;10.70;85.29;102738.00;4933906;29;20074;-89
2021/10/13 09:20:49;;;;;;;;;;;;;;;10.73;85.80;102737.09;4936829;29;20238;-89
2021/10/13 09:23:14;;;;;;;4.78;1.08;;;;;;;10.76;86.81;102740.56;4938436;29;20241;-88
2021/10/13 09:25:40;;;;;;;4.15;1.08;;;;;;;10.76;87.09;102737.06;4951457;28;20102;-89
2021/10/13 09:28:05;;;;;;;3.85;1.20;;;;;;;10.75;86.65;102732.69;4937340;29;20031;-88
2021/10/13 09:30:35;;;;;;;6.63;1.13;;;;;;;10.77;84.72;102736.19;4918664;29;20035;-88
2021/10/13 09:33:15;;;;;;;2.97;1.00;;;;;;;10.82;84.39;102737.00;4929010;29;20077;-89
2021/10/13 09:35:52;;;;;;;6.68;1.08;;;;;;;10.86;84.57;102738.72;4926825;29;20220;-89
2021/10/13 09:38:18;;;;;;;8.23;1.13;;;;;;;10.90;85.21;102743.03;4931288;29;20046;-88
2021/10/13 09:40:44;;;;;;;3.17;0.80;;;;;;;10.93;83.85;102740.38;4954550;28;20047;-88
2021/10/13 09:43:29;;;;;;;4.03;0.80;;;;;;;11.01;84.22;102734.19;4921070;29;20032;-89
2021/10/13 09:46:02;;;;;;;2.80;0.73;;;;;;;11.04;85.01;102749.84;4908315;29;20047;-89
2021/10/13 09:48:28;;;;;;;6.55;0.93;;;;;;;11.05;83.78;102741.13;4940822;29;20207;-89
2021/10/13 09:50:53;;;;;;;5.40;0.80;;;;;;;11.05;83.08;102747.22;4940172;29;20852;-89
2021/10/13 09:53:28;;;;;;;4.50;0.98;;;;;;;11.12;82.78;102754.13;4919952;29;20035;-89
2021/10/13 09:55:54;;;;;;;5.80;1.00;;;;;;;11.21;81.97;102758.38;4923365;29;20094;-88
2021/10/13 09:58:37;;;;;;;4.32;0.75;;;;;;;11.28;82.81;102767.91;4915123;29;20089;-88
2021/10/13 10:01:12;;;;;;;2.08;0.50;;;;;;;11.30;80.72;102766.13;4946707;29;20138;-89
2021/10/13 10:03:40;;;;;;;2.15;0.60;;;;;;;11.35;81.91;102773.97;4923401;29;20342;-88
2021/10/13 10:06:06;;;;;;;7.88;0.80;;;;;;;11.38;82.21;102767.78;4925969;29;20038;-88
2021/10/13 10:09:13;;;;;;;2.70;0.70;;;;;;;11.40;81.37;102773.88;4934114;29;20231;-89
2021/10/13 10:11:40;;;;;;;4.97;1.15;;;;;;;11.40;81.03;102766.88;4934554;29;20261;-89
2021/10/13 10:14:25;;;;;;;3.88;1.15;;;;;;;11.38;80.75;102766.03;4939240;29;20047;-89
2021/10/13 10:16:50;;;;;;;3.42;0.60;;;;;;;11.38;81.61;102770.41;4941229;29;20065;-88
2021/10/13 10:19:20;;;;;;;4.95;0.68;;;;;;;11.32;81.99;102768.75;4939224;28;20226;-88
2021/10/13 10:22:13;;;;;;;6.00;0.90;;;;;;;11.27;81.78;102770.56;4925994;29;20086;-87
2021/10/13 10:24:40;;;;;;;5.28;0.77;;;;;;;11.23;82.29;102769.72;4954519;28;20038;-87
2021/10/13 10:27:24;;;;;;;5.93;1.05;;;;;;;11.20;83.01;102769.75;4923509;29;20106;-87
2021/10/13 10:29:59;;;;;;;4.38;0.77;;;;;;;11.18;81.35;102775.91;4935073;29;20035;-87
2021/10/13 10:32:24;;;;;;;4.10;0.80;;;;;;;11.26;82.91;102760.94;4942774;29;20323;-87
2021/10/13 10:35:05;;;;;;;8.90;0.82;;;;;;;11.36;83.66;102757.31;4942115;29;20078;-87
2021/10/13 10:37:46;;;;;;;2.08;0.77;;;;;;;11.45;83.26;102754.56;4959502;29;20077;-87
2021/10/13 10:40:22;;;;;;;3.42;0.80;;;;;;;11.57;82.83;102757.91;4940165;29;20142;-87
2021/10/13 10:43:02;;;;;;;3.63;0.90;;;;;;;11.66;83.53;102763.00;4926765;29;20038;-87
2021/10/13 10:45:35;;;;;;;3.03;0.70;;;;;;;11.74;83.83;102765.53;4924197;29;20031;-87
2021/10/13 10:48:00;;;;;;;4.07;0.80;;;;;;;11.81;83.33;102762.81;4909363;29;20233;-88
2021/10/13 10:50:42;;;;;;;7.23;0.50;;;;;;;11.85;80.71;102766.25;4943164;29;20238;-88
2021/10/13 10:53:40;;;;;;;4.45;0.68;;;;;;;11.96;74.83;102771.38;4958028;28;20602;-87
2021/10/13 10:56:18;;;;;;;5.82;0.65;;;;;;;12.14;74.31;102767.59;4927326;29;20319;-88
2021/10/13 10:58:57;;;;;;;5.93;0.80;;;;;;;12.29;72.78;102770.78;4935749;29;20555;-87
2021/10/13 11:01:22;;;;;;;4.95;0.80;;;;;;;12.37;70.56;102767.16;4959896;29;20251;-87
2021/10/13 11:03:48;;;;;;;5.03;0.82;;;;;;;12.41;72.79;102763.63;4930390;29;20053;-87
2021/10/13 11:06:20;;;;;;;3.20;0.90;;;;;;;12.37;72.79;102759.28;4926484;29;20041;-88
2021/10/13 11:09:07;;;;;;;3.17;0.60;;;;;;;12.30;74.99;102766.44;4942275;29;20043;-88
2021/10/13 11:11:48;;;;;;;6.32;0.80;;;;;;;12.21;73.28;102763.97;4942521;29;20065;-87
2021/10/13 11:14:15;;;;;;;0.93;0.70;;;;;;;12.16;74.27;102761.41;4927931;29;20035;-87
2021/10/13 11:16:49;;;;;;;4.32;1.15;;;;;;;12.15;75.67;102769.31;4925441;29;20043;-87
2021/10/13 11:19:17;;;;;;;7.78;1.00;;;;;;;12.10;75.67;102765.00;4928037;29;20019;-87
2021/10/13 11:21:43;;;;;;;5.22;0.95;;;;;;;12.10;73.99;102774.66;4921624;29;20036;-88
2021/10/13 11:24:08;;;;;;;3.28;1.05;;;;;;;12.07;72.04;102769.44;4916272;29;20088;-87
2021/10/13 11:26:34;;;;;;;1.08;0.50;;;;;;;12.06;73.47;102786.97;4943613;29;20287;-88
2021/10/13 11:28:59;;;;;;;5.38;1.02;;;;;;;12.03;72.47;102781.75;4927554;29;20098;-87
2021/10/13 11:31:25;;;;;;;4.82;1.10;;;;;;;12.01;71.71;102783.53;4915762;29;20114;-88
2021/10/13 11:34:03;;;;;;;5.70;0.93;;;;;;;11.99;73.48;102785.31;4928198;29;20106;-87